sensor_id;sensor_type;location;lat;lon;timestamp;P1;durP1;ratioP1;P2;durP2;ratioP2
57311;SDS011;43154;50.966;18.316;2023-02-04T00:01:42;15.10;;;3.40;;
57311;SDS011;43154;50.966;18.316;2023-02-04T00:04:17;15.50;;;3.00;;
57311;SDS011;43154;50.966;18.316;2023-02-04T00:06:43;10.00;;;2.20;;
57311;SDS011;43154;50.966;18.316;2023-02-04T00:09:12;13.70;;;3.50;;
57311;SDS011;43154;50.966;18.316;2023-02-04T00:11:43;9.10;;;2.40;;
57311;SDS011;43154;50.966;18.316;2023-02-04T00:14:11;10.90;;;2.50;;
57311;SDS011;43154;50.966;18.316;2023-02-04T00:16:43;11.10;;;2.70;;
57311;SDS011;43154;50.966;18.316;2023-02-04T00:19:09;7.80;;;2.30;;
57311;SDS011;43154;50.966;18.316;2023-02-04T00:21:35;10.10;;;2.70;;
57311;SDS011;43154;50.966;18.316;2023-02-04T00:24:00;9.60;;;2.50;;
57311;SDS011;43154;50.966;18.316;2023-02-04T00:26:26;9.90;;;2.50;;
57311;SDS011;43154;50.966;18.316;2023-02-04T00:28:52;11.60;;;2.80;;
57311;SDS011;43154;50.966;18.316;2023-02-04T00:31:18;10.50;;;2.80;;
57311;SDS011;43154;50.966;18.316;2023-02-04T00:33:44;13.00;;;3.50;;
57311;SDS011;43154;50.966;18.316;2023-02-04T00:36:10;13.80;;;3.90;;
57311;SDS011;43154;50.966;18.316;2023-02-04T00:38:36;12.10;;;3.90;;
57311;SDS011;43154;50.966;18.316;2023-02-04T00:41:02;9.80;;;2.70;;
57311;SDS011;43154;50.966;18.316;2023-02-04T00:43:27;11.10;;;3.80;;
57311;SDS011;43154;50.966;18.316;2023-02-04T00:45:53;11.30;;;3.20;;
57311;SDS011;43154;50.966;18.316;2023-02-04T00:48:19;11.70;;;3.40;;
57311;SDS011;43154;50.966;18.316;2023-02-04T00:50:45;10.40;;;3.40;;
57311;SDS011;43154;50.966;18.316;2023-02-04T00:53:11;12.60;;;3.80;;
57311;SDS011;43154;50.966;18.316;2023-02-04T00:55:37;9.50;;;3.10;;
57311;SDS011;43154;50.966;18.316;2023-02-04T00:58:05;11.50;;;3.30;;
57311;SDS011;43154;50.966;18.316;2023-02-04T01:00:34;11.90;;;3.60;;
57311;SDS011;43154;50.966;18.316;2023-02-04T01:03:00;10.10;;;2.80;;
57311;SDS011;43154;50.966;18.316;2023-02-04T01:05:26;8.30;;;2.50;;
57311;SDS011;43154;50.966;18.316;2023-02-04T01:07:52;12.40;;;3.40;;
57311;SDS011;43154;50.966;18.316;2023-02-04T01:10:18;10.70;;;3.20;;
57311;SDS011;43154;50.966;18.316;2023-02-04T01:12:44;10.70;;;3.40;;
57311;SDS011;43154;50.966;18.316;2023-02-04T01:15:10;8.40;;;2.60;;
57311;SDS011;43154;50.966;18.316;2023-02-04T01:17:36;7.80;;;2.20;;
57311;SDS011;43154;50.966;18.316;2023-02-04T01:20:02;9.20;;;2.60;;
57311;SDS011;43154;50.966;18.316;2023-02-04T01:22:31;9.00;;;2.50;;
57311;SDS011;43154;50.966;18.316;2023-02-04T01:24:56;7.40;;;2.50;;
57311;SDS011;43154;50.966;18.316;2023-02-04T01:27:22;9.20;;;2.90;;
57311;SDS011;43154;50.966;18.316;2023-02-04T01:29:48;7.10;;;2.20;;
57311;SDS011;43154;50.966;18.316;2023-02-04T01:32:16;8.50;;;2.20;;
57311;SDS011;43154;50.966;18.316;2023-02-04T01:34:42;10.10;;;2.90;;
57311;SDS011;43154;50.966;18.316;2023-02-04T01:37:08;10.30;;;2.90;;
57311;SDS011;43154;50.966;18.316;2023-02-04T01:39:34;9.90;;;2.90;;
57311;SDS011;43154;50.966;18.316;2023-02-04T01:42:01;8.40;;;2.50;;
57311;SDS011;43154;50.966;18.316;2023-02-04T01:44:35;8.40;;;2.40;;
57311;SDS011;43154;50.966;18.316;2023-02-04T01:47:04;8.90;;;2.70;;
57311;SDS011;43154;50.966;18.316;2023-02-04T01:49:30;6.10;;;1.80;;
57311;SDS011;43154;50.966;18.316;2023-02-04T01:51:57;8.50;;;2.50;;
57311;SDS011;43154;50.966;18.316;2023-02-04T01:54:23;4.80;;;1.60;;
57311;SDS011;43154;50.966;18.316;2023-02-04T01:56:50;8.50;;;2.50;;
57311;SDS011;43154;50.966;18.316;2023-02-04T01:59:18;8.90;;;2.60;;
57311;SDS011;43154;50.966;18.316;2023-02-04T02:01:45;7.40;;;2.30;;
57311;SDS011;43154;50.966;18.316;2023-02-04T02:04:16;8.10;;;2.40;;
57311;SDS011;43154;50.966;18.316;2023-02-04T02:06:48;5.70;;;1.80;;
57311;SDS011;43154;50.966;18.316;2023-02-04T02:09:20;6.10;;;1.90;;
57311;SDS011;43154;50.966;18.316;2023-02-04T02:11:48;8.10;;;2.10;;
57311;SDS011;43154;50.966;18.316;2023-02-04T02:14:23;5.00;;;1.80;;
57311;SDS011;43154;50.966;18.316;2023-02-04T02:16:52;9.40;;;2.40;;
57311;SDS011;43154;50.966;18.316;2023-02-04T02:19:20;10.00;;;2.30;;
57311;SDS011;43154;50.966;18.316;2023-02-04T02:22:06;15.40;;;6.00;;
57311;SDS011;43154;50.966;18.316;2023-02-04T02:24:37;15.00;;;6.30;;
57311;SDS011;43154;50.966;18.316;2023-02-04T02:27:07;19.70;;;8.70;;
57311;SDS011;43154;50.966;18.316;2023-02-04T02:29:41;21.50;;;9.30;;
57311;SDS011;43154;50.966;18.316;2023-02-04T02:32:10;21.30;;;9.80;;
57311;SDS011;43154;50.966;18.316;2023-02-04T02:34:41;25.50;;;11.60;;
57311;SDS011;43154;50.966;18.316;2023-02-04T02:37:16;24.70;;;11.20;;
57311;SDS011;43154;50.966;18.316;2023-02-04T02:39:45;27.90;;;11.40;;
57311;SDS011;43154;50.966;18.316;2023-02-04T02:42:18;27.90;;;12.70;;
57311;SDS011;43154;50.966;18.316;2023-02-04T02:45:03;25.20;;;11.80;;
57311;SDS011;43154;50.966;18.316;2023-02-04T02:47:38;22.60;;;10.30;;
57311;SDS011;43154;50.966;18.316;2023-02-04T02:50:12;22.90;;;11.20;;
57311;SDS011;43154;50.966;18.316;2023-02-04T02:52:41;22.60;;;8.70;;
57311;SDS011;43154;50.966;18.316;2023-02-04T02:55:14;24.00;;;10.50;;
57311;SDS011;43154;50.966;18.316;2023-02-04T03:00:21;18.20;;;7.10;;
57311;SDS011;43154;50.966;18.316;2023-02-04T03:05:18;19.80;;;8.20;;
57311;SDS011;43154;50.966;18.316;2023-02-04T03:07:44;20.80;;;9.00;;
57311;SDS011;43154;50.966;18.316;2023-02-04T03:10:10;22.70;;;8.80;;
57311;SDS011;43154;50.966;18.316;2023-02-04T03:12:36;18.60;;;8.50;;
57311;SDS011;43154;50.966;18.316;2023-02-04T03:15:02;18.80;;;8.20;;
57311;SDS011;43154;50.966;18.316;2023-02-04T03:17:29;20.80;;;8.70;;
57311;SDS011;43154;50.966;18.316;2023-02-04T03:19:55;19.30;;;7.70;;
57311;SDS011;43154;50.966;18.316;2023-02-04T03:22:21;18.90;;;8.20;;
57311;SDS011;43154;50.966;18.316;2023-02-04T03:24:46;19.50;;;8.60;;
57311;SDS011;43154;50.966;18.316;2023-02-04T03:27:13;19.80;;;7.90;;
57311;SDS011;43154;50.966;18.316;2023-02-04T03:29:43;20.00;;;8.50;;
57311;SDS011;43154;50.966;18.316;2023-02-04T03:32:09;19.80;;;8.80;;
57311;SDS011;43154;50.966;18.316;2023-02-04T03:34:35;17.80;;;6.50;;
57311;SDS011;43154;50.966;18.316;2023-02-04T03:37:01;18.40;;;8.10;;
57311;SDS011;43154;50.966;18.316;2023-02-04T03:39:26;19.40;;;8.10;;
57311;SDS011;43154;50.966;18.316;2023-02-04T03:41:52;16.60;;;7.00;;
57311;SDS011;43154;50.966;18.316;2023-02-04T03:44:17;21.70;;;9.00;;
57311;SDS011;43154;50.966;18.316;2023-02-04T03:46:43;16.70;;;6.70;;
57311;SDS011;43154;50.966;18.316;2023-02-04T03:49:09;17.70;;;6.60;;
57311;SDS011;43154;50.966;18.316;2023-02-04T03:51:35;19.70;;;7.30;;
57311;SDS011;43154;50.966;18.316;2023-02-04T03:54:00;16.40;;;6.10;;
57311;SDS011;43154;50.966;18.316;2023-02-04T03:56:26;17.70;;;6.90;;
57311;SDS011;43154;50.966;18.316;2023-02-04T03:58:51;18.30;;;7.60;;
57311;SDS011;43154;50.966;18.316;2023-02-04T04:01:17;17.20;;;6.90;;
57311;SDS011;43154;50.966;18.316;2023-02-04T04:03:42;18.00;;;6.70;;
57311;SDS011;43154;50.966;18.316;2023-02-04T04:06:08;17.60;;;7.10;;
57311;SDS011;43154;50.966;18.316;2023-02-04T04:08:35;18.80;;;7.50;;
57311;SDS011;43154;50.966;18.316;2023-02-04T04:11:02;16.60;;;6.50;;
57311;SDS011;43154;50.966;18.316;2023-02-04T04:13:27;20.50;;;8.30;;
57311;SDS011;43154;50.966;18.316;2023-02-04T04:15:53;21.20;;;8.30;;
57311;SDS011;43154;50.966;18.316;2023-02-04T04:18:18;18.40;;;6.90;;
57311;SDS011;43154;50.966;18.316;2023-02-04T04:20:44;19.20;;;7.50;;
57311;SDS011;43154;50.966;18.316;2023-02-04T04:23:09;16.00;;;6.20;;
57311;SDS011;43154;50.966;18.316;2023-02-04T04:25:35;16.30;;;6.40;;
57311;SDS011;43154;50.966;18.316;2023-02-04T04:28:00;17.10;;;6.80;;
57311;SDS011;43154;50.966;18.316;2023-02-04T04:30:26;17.70;;;7.50;;
57311;SDS011;43154;50.966;18.316;2023-02-04T04:32:51;20.00;;;7.60;;
57311;SDS011;43154;50.966;18.316;2023-02-04T04:35:17;18.00;;;7.20;;
57311;SDS011;43154;50.966;18.316;2023-02-04T04:37:42;17.90;;;6.90;;
57311;SDS011;43154;50.966;18.316;2023-02-04T04:40:10;15.60;;;6.30;;
57311;SDS011;43154;50.966;18.316;2023-02-04T04:42:36;19.80;;;8.30;;
57311;SDS011;43154;50.966;18.316;2023-02-04T04:45:01;16.80;;;6.40;;
57311;SDS011;43154;50.966;18.316;2023-02-04T04:47:27;17.50;;;7.50;;
57311;SDS011;43154;50.966;18.316;2023-02-04T04:49:53;19.60;;;6.80;;
57311;SDS011;43154;50.966;18.316;2023-02-04T04:52:18;19.10;;;7.80;;
57311;SDS011;43154;50.966;18.316;2023-02-04T04:54:44;21.40;;;8.00;;
57311;SDS011;43154;50.966;18.316;2023-02-04T04:57:09;20.00;;;7.40;;
57311;SDS011;43154;50.966;18.316;2023-02-04T04:59:35;19.30;;;7.90;;
57311;SDS011;43154;50.966;18.316;2023-02-04T05:02:00;23.10;;;9.10;;
57311;SDS011;43154;50.966;18.316;2023-02-04T05:04:26;19.10;;;7.80;;
57311;SDS011;43154;50.966;18.316;2023-02-04T05:06:52;21.20;;;8.60;;
57311;SDS011;43154;50.966;18.316;2023-02-04T05:09:17;20.00;;;8.10;;
57311;SDS011;43154;50.966;18.316;2023-02-04T05:11:43;15.60;;;5.90;;
57311;SDS011;43154;50.966;18.316;2023-02-04T05:14:09;19.90;;;7.80;;
57311;SDS011;43154;50.966;18.316;2023-02-04T05:16:34;17.40;;;6.30;;
57311;SDS011;43154;50.966;18.316;2023-02-04T05:19:00;19.00;;;7.20;;
57311;SDS011;43154;50.966;18.316;2023-02-04T05:21:26;20.10;;;7.60;;
57311;SDS011;43154;50.966;18.316;2023-02-04T05:23:51;18.60;;;6.90;;
57311;SDS011;43154;50.966;18.316;2023-02-04T05:26:17;17.50;;;6.50;;
57311;SDS011;43154;50.966;18.316;2023-02-04T05:28:42;18.20;;;7.10;;
57311;SDS011;43154;50.966;18.316;2023-02-04T05:31:08;20.20;;;7.80;;
57311;SDS011;43154;50.966;18.316;2023-02-04T05:33:33;18.40;;;6.40;;
57311;SDS011;43154;50.966;18.316;2023-02-04T05:35:59;18.60;;;7.60;;
57311;SDS011;43154;50.966;18.316;2023-02-04T05:38:24;21.30;;;8.70;;
57311;SDS011;43154;50.966;18.316;2023-02-04T05:40:50;21.60;;;8.10;;
57311;SDS011;43154;50.966;18.316;2023-02-04T05:43:15;21.20;;;8.60;;
57311;SDS011;43154;50.966;18.316;2023-02-04T05:45:44;19.90;;;8.70;;
57311;SDS011;43154;50.966;18.316;2023-02-04T05:48:09;20.40;;;8.80;;
57311;SDS011;43154;50.966;18.316;2023-02-04T05:50:35;20.00;;;8.80;;
57311;SDS011;43154;50.966;18.316;2023-02-04T05:53:01;23.60;;;9.50;;
57311;SDS011;43154;50.966;18.316;2023-02-04T05:55:26;23.00;;;8.70;;
57311;SDS011;43154;50.966;18.316;2023-02-04T05:57:52;24.30;;;10.50;;
57311;SDS011;43154;50.966;18.316;2023-02-04T06:00:17;24.30;;;9.70;;
57311;SDS011;43154;50.966;18.316;2023-02-04T06:02:44;26.50;;;11.60;;
57311;SDS011;43154;50.966;18.316;2023-02-04T06:05:09;26.10;;;10.60;;
57311;SDS011;43154;50.966;18.316;2023-02-04T06:07:35;25.60;;;9.80;;
57311;SDS011;43154;50.966;18.316;2023-02-04T06:10:00;26.80;;;10.50;;
57311;SDS011;43154;50.966;18.316;2023-02-04T06:12:26;22.40;;;10.00;;
57311;SDS011;43154;50.966;18.316;2023-02-04T06:14:51;21.50;;;9.30;;
57311;SDS011;43154;50.966;18.316;2023-02-04T06:17:17;21.60;;;9.20;;
57311;SDS011;43154;50.966;18.316;2023-02-04T06:19:43;25.30;;;10.70;;
57311;SDS011;43154;50.966;18.316;2023-02-04T06:22:08;22.90;;;10.00;;
57311;SDS011;43154;50.966;18.316;2023-02-04T06:24:33;22.10;;;9.60;;
57311;SDS011;43154;50.966;18.316;2023-02-04T06:26:59;23.90;;;10.50;;
57311;SDS011;43154;50.966;18.316;2023-02-04T06:29:24;23.20;;;9.70;;
57311;SDS011;43154;50.966;18.316;2023-02-04T06:31:50;22.00;;;9.60;;
57311;SDS011;43154;50.966;18.316;2023-02-04T06:34:16;22.30;;;9.80;;
57311;SDS011;43154;50.966;18.316;2023-02-04T06:36:41;23.30;;;9.50;;
57311;SDS011;43154;50.966;18.316;2023-02-04T06:39:07;24.40;;;9.80;;
57311;SDS011;43154;50.966;18.316;2023-02-04T06:41:32;21.90;;;9.10;;
57311;SDS011;43154;50.966;18.316;2023-02-04T06:43:58;23.60;;;10.00;;
57311;SDS011;43154;50.966;18.316;2023-02-04T06:46:23;23.10;;;9.50;;
57311;SDS011;43154;50.966;18.316;2023-02-04T06:48:49;23.30;;;10.40;;
57311;SDS011;43154;50.966;18.316;2023-02-04T06:51:14;24.40;;;10.70;;
57311;SDS011;43154;50.966;18.316;2023-02-04T06:53:40;24.20;;;11.40;;
57311;SDS011;43154;50.966;18.316;2023-02-04T06:56:08;28.40;;;11.90;;
57311;SDS011;43154;50.966;18.316;2023-02-04T06:58:35;27.10;;;12.30;;
57311;SDS011;43154;50.966;18.316;2023-02-04T07:01:01;36.40;;;16.10;;
57311;SDS011;43154;50.966;18.316;2023-02-04T07:03:27;28.80;;;12.40;;
57311;SDS011;43154;50.966;18.316;2023-02-04T07:05:52;33.30;;;13.00;;
57311;SDS011;43154;50.966;18.316;2023-02-04T07:08:18;35.80;;;14.40;;
57311;SDS011;43154;50.966;18.316;2023-02-04T07:10:46;30.50;;;12.40;;
57311;SDS011;43154;50.966;18.316;2023-02-04T07:13:12;32.50;;;14.00;;
57311;SDS011;43154;50.966;18.316;2023-02-04T07:15:38;27.80;;;11.80;;
57311;SDS011;43154;50.966;18.316;2023-02-04T07:18:04;28.30;;;12.30;;
57311;SDS011;43154;50.966;18.316;2023-02-04T07:20:29;30.10;;;12.20;;
57311;SDS011;43154;50.966;18.316;2023-02-04T07:22:55;28.50;;;11.30;;
57311;SDS011;43154;50.966;18.316;2023-02-04T07:25:20;26.60;;;9.40;;
57311;SDS011;43154;50.966;18.316;2023-02-04T08:02:08;22.80;;;9.10;;
57311;SDS011;43154;50.966;18.316;2023-02-04T08:04:34;19.90;;;7.40;;
57311;SDS011;43154;50.966;18.316;2023-02-04T08:06:59;19.30;;;7.90;;
57311;SDS011;43154;50.966;18.316;2023-02-04T08:09:25;28.00;;;10.60;;
57311;SDS011;43154;50.966;18.316;2023-02-04T08:11:51;19.70;;;7.70;;
57311;SDS011;43154;50.966;18.316;2023-02-04T08:14:17;20.50;;;7.30;;
57311;SDS011;43154;50.966;18.316;2023-02-04T08:16:42;18.20;;;7.40;;
57311;SDS011;43154;50.966;18.316;2023-02-04T08:19:08;18.70;;;6.80;;
57311;SDS011;43154;50.966;18.316;2023-02-04T08:21:34;15.50;;;6.00;;
57311;SDS011;43154;50.966;18.316;2023-02-04T08:24:00;16.60;;;6.30;;
57311;SDS011;43154;50.966;18.316;2023-02-04T08:26:26;22.30;;;8.40;;
57311;SDS011;43154;50.966;18.316;2023-02-04T08:28:51;16.70;;;6.40;;
57311;SDS011;43154;50.966;18.316;2023-02-04T08:31:17;18.30;;;6.30;;
57311;SDS011;43154;50.966;18.316;2023-02-04T08:33:42;18.60;;;6.80;;
57311;SDS011;43154;50.966;18.316;2023-02-04T08:36:08;20.50;;;7.20;;
57311;SDS011;43154;50.966;18.316;2023-02-04T08:38:33;19.00;;;7.40;;
57311;SDS011;43154;50.966;18.316;2023-02-04T08:40:59;16.50;;;6.10;;
57311;SDS011;43154;50.966;18.316;2023-02-04T08:43:25;16.90;;;6.40;;
57311;SDS011;43154;50.966;18.316;2023-02-04T08:45:51;17.60;;;6.40;;
57311;SDS011;43154;50.966;18.316;2023-02-04T08:48:17;18.70;;;6.00;;
57311;SDS011;43154;50.966;18.316;2023-02-04T08:50:42;18.70;;;6.50;;
57311;SDS011;43154;50.966;18.316;2023-02-04T08:53:08;22.20;;;7.90;;
57311;SDS011;43154;50.966;18.316;2023-02-04T10:17:20;14.50;;;5.10;;
57311;SDS011;43154;50.966;18.316;2023-02-04T10:19:48;14.20;;;4.60;;
57311;SDS011;43154;50.966;18.316;2023-02-04T10:22:15;14.10;;;4.60;;
57311;SDS011;43154;50.966;18.316;2023-02-04T10:24:43;12.40;;;4.20;;
57311;SDS011;43154;50.966;18.316;2023-02-04T10:27:09;12.40;;;3.80;;
57311;SDS011;43154;50.966;18.316;2023-02-04T10:29:36;14.70;;;4.40;;
57311;SDS011;43154;50.966;18.316;2023-02-04T10:32:01;18.00;;;5.60;;
57311;SDS011;43154;50.966;18.316;2023-02-04T10:34:34;17.50;;;5.90;;
57311;SDS011;43154;50.966;18.316;2023-02-04T10:37:20;14.80;;;4.30;;
57311;SDS011;43154;50.966;18.316;2023-02-04T10:39:46;14.80;;;4.70;;
57311;SDS011;43154;50.966;18.316;2023-02-04T10:42:23;12.40;;;3.70;;
57311;SDS011;43154;50.966;18.316;2023-02-04T10:44:50;20.80;;;5.80;;
57311;SDS011;43154;50.966;18.316;2023-02-04T10:47:18;20.70;;;6.40;;
57311;SDS011;43154;50.966;18.316;2023-02-04T10:50:06;14.20;;;4.40;;
57311;SDS011;43154;50.966;18.316;2023-02-04T10:52:44;14.00;;;4.30;;
57311;SDS011;43154;50.966;18.316;2023-02-04T10:55:13;16.30;;;5.80;;
57311;SDS011;43154;50.966;18.316;2023-02-04T10:57:42;14.20;;;4.00;;
57311;SDS011;43154;50.966;18.316;2023-02-04T11:02:48;9.70;;;2.70;;
57311;SDS011;43154;50.966;18.316;2023-02-04T11:05:20;15.00;;;4.50;;
57311;SDS011;43154;50.966;18.316;2023-02-04T11:07:48;13.20;;;4.10;;
57311;SDS011;43154;50.966;18.316;2023-02-04T11:10:15;12.60;;;4.40;;
57311;SDS011;43154;50.966;18.316;2023-02-04T11:12:46;14.60;;;5.00;;
57311;SDS011;43154;50.966;18.316;2023-02-04T11:20:45;16.00;;;5.70;;
57311;SDS011;43154;50.966;18.316;2023-02-04T11:26:00;18.10;;;6.40;;
57311;SDS011;43154;50.966;18.316;2023-02-04T11:31:13;13.50;;;4.70;;
57311;SDS011;43154;50.966;18.316;2023-02-04T11:34:02;14.20;;;5.40;;
57311;SDS011;43154;50.966;18.316;2023-02-04T11:36:34;16.30;;;5.80;;
57311;SDS011;43154;50.966;18.316;2023-02-04T11:39:14;18.10;;;5.30;;
57311;SDS011;43154;50.966;18.316;2023-02-04T11:41:41;15.10;;;4.60;;
57311;SDS011;43154;50.966;18.316;2023-02-04T11:44:09;16.00;;;6.00;;
57311;SDS011;43154;50.966;18.316;2023-02-04T11:46:35;19.90;;;6.70;;
57311;SDS011;43154;50.966;18.316;2023-02-04T11:49:00;16.50;;;5.70;;
57311;SDS011;43154;50.966;18.316;2023-02-04T11:51:30;16.30;;;5.90;;
57311;SDS011;43154;50.966;18.316;2023-02-04T11:53:57;15.60;;;5.40;;
57311;SDS011;43154;50.966;18.316;2023-02-04T11:56:29;17.40;;;5.90;;
57311;SDS011;43154;50.966;18.316;2023-02-04T11:58:55;14.50;;;4.60;;
57311;SDS011;43154;50.966;18.316;2023-02-04T12:01:23;18.10;;;5.20;;
57311;SDS011;43154;50.966;18.316;2023-02-04T12:04:02;15.10;;;5.50;;
57311;SDS011;43154;50.966;18.316;2023-02-04T12:06:34;14.60;;;4.90;;
57311;SDS011;43154;50.966;18.316;2023-02-04T12:11:30;15.30;;;5.20;;
57311;SDS011;43154;50.966;18.316;2023-02-04T12:14:09;16.80;;;6.40;;
57311;SDS011;43154;50.966;18.316;2023-02-04T12:16:48;14.60;;;4.90;;
57311;SDS011;43154;50.966;18.316;2023-02-04T12:19:20;15.90;;;5.50;;
57311;SDS011;43154;50.966;18.316;2023-02-04T12:21:47;15.20;;;6.00;;
57311;SDS011;43154;50.966;18.316;2023-02-04T12:24:13;18.20;;;6.60;;
57311;SDS011;43154;50.966;18.316;2023-02-04T12:26:38;18.30;;;7.10;;
57311;SDS011;43154;50.966;18.316;2023-02-04T12:29:05;14.60;;;5.00;;
57311;SDS011;43154;50.966;18.316;2023-02-04T12:31:31;32.50;;;10.80;;
57311;SDS011;43154;50.966;18.316;2023-02-04T12:33:58;12.90;;;4.90;;
57311;SDS011;43154;50.966;18.316;2023-02-04T12:36:24;11.90;;;4.10;;
57311;SDS011;43154;50.966;18.316;2023-02-04T12:38:52;20.80;;;7.20;;
57311;SDS011;43154;50.966;18.316;2023-02-04T12:41:21;11.20;;;3.20;;
57311;SDS011;43154;50.966;18.316;2023-02-04T12:43:47;12.70;;;3.80;;
57311;SDS011;43154;50.966;18.316;2023-02-04T12:46:15;9.60;;;2.90;;
57311;SDS011;43154;50.966;18.316;2023-02-04T12:48:41;12.10;;;3.20;;
57311;SDS011;43154;50.966;18.316;2023-02-04T12:51:08;16.90;;;5.70;;
57311;SDS011;43154;50.966;18.316;2023-02-04T12:53:34;11.30;;;3.50;;
57311;SDS011;43154;50.966;18.316;2023-02-04T12:56:00;11.60;;;3.60;;
57311;SDS011;43154;50.966;18.316;2023-02-04T12:58:25;12.40;;;3.70;;
57311;SDS011;43154;50.966;18.316;2023-02-04T13:00:51;11.80;;;3.50;;
57311;SDS011;43154;50.966;18.316;2023-02-04T13:03:17;11.70;;;3.70;;
57311;SDS011;43154;50.966;18.316;2023-02-04T13:05:43;11.80;;;3.90;;
57311;SDS011;43154;50.966;18.316;2023-02-04T13:08:09;12.00;;;4.10;;
57311;SDS011;43154;50.966;18.316;2023-02-04T13:10:35;9.80;;;3.30;;
57311;SDS011;43154;50.966;18.316;2023-02-04T13:13:04;10.10;;;3.00;;
57311;SDS011;43154;50.966;18.316;2023-02-04T13:15:30;9.20;;;2.70;;
57311;SDS011;43154;50.966;18.316;2023-02-04T13:17:56;11.50;;;3.00;;
57311;SDS011;43154;50.966;18.316;2023-02-04T13:20:23;13.30;;;4.00;;
57311;SDS011;43154;50.966;18.316;2023-02-04T13:22:49;13.30;;;4.80;;
57311;SDS011;43154;50.966;18.316;2023-02-04T13:25:15;12.40;;;3.80;;
57311;SDS011;43154;50.966;18.316;2023-02-04T13:27:42;13.50;;;4.50;;
57311;SDS011;43154;50.966;18.316;2023-02-04T13:30:12;12.60;;;4.30;;
57311;SDS011;43154;50.966;18.316;2023-02-04T13:32:39;16.00;;;5.80;;
57311;SDS011;43154;50.966;18.316;2023-02-04T13:35:05;19.50;;;7.80;;
57311;SDS011;43154;50.966;18.316;2023-02-04T13:37:31;14.20;;;4.70;;
57311;SDS011;43154;50.966;18.316;2023-02-04T13:39:57;17.70;;;5.30;;
57311;SDS011;43154;50.966;18.316;2023-02-04T13:42:23;15.10;;;5.50;;
57311;SDS011;43154;50.966;18.316;2023-02-04T13:44:48;17.40;;;6.20;;
57311;SDS011;43154;50.966;18.316;2023-02-04T13:47:14;17.90;;;5.50;;
57311;SDS011;43154;50.966;18.316;2023-02-04T13:49:40;14.50;;;4.70;;
57311;SDS011;43154;50.966;18.316;2023-02-04T13:52:06;19.20;;;6.50;;
57311;SDS011;43154;50.966;18.316;2023-02-04T13:54:32;12.20;;;3.90;;
57311;SDS011;43154;50.966;18.316;2023-02-04T13:56:57;12.80;;;4.10;;
57311;SDS011;43154;50.966;18.316;2023-02-04T13:59:23;13.00;;;4.20;;
57311;SDS011;43154;50.966;18.316;2023-02-04T14:01:52;11.70;;;4.10;;
57311;SDS011;43154;50.966;18.316;2023-02-04T14:04:18;11.90;;;3.60;;
57311;SDS011;43154;50.966;18.316;2023-02-04T14:06:43;11.60;;;3.70;;
57311;SDS011;43154;50.966;18.316;2023-02-04T14:09:10;16.10;;;5.00;;
57311;SDS011;43154;50.966;18.316;2023-02-04T14:11:36;13.70;;;3.90;;
57311;SDS011;43154;50.966;18.316;2023-02-04T14:14:02;16.70;;;5.50;;
57311;SDS011;43154;50.966;18.316;2023-02-04T14:16:28;14.80;;;5.20;;
57311;SDS011;43154;50.966;18.316;2023-02-04T14:18:54;15.50;;;4.40;;
57311;SDS011;43154;50.966;18.316;2023-02-04T14:21:20;15.90;;;4.90;;
57311;SDS011;43154;50.966;18.316;2023-02-04T14:23:45;13.00;;;4.20;;
57311;SDS011;43154;50.966;18.316;2023-02-04T14:26:11;13.80;;;4.00;;
57311;SDS011;43154;50.966;18.316;2023-02-04T14:28:37;31.30;;;12.20;;
57311;SDS011;43154;50.966;18.316;2023-02-04T14:31:03;39.10;;;13.90;;
57311;SDS011;43154;50.966;18.316;2023-02-04T14:33:29;19.60;;;6.80;;
57311;SDS011;43154;50.966;18.316;2023-02-04T14:35:55;12.60;;;3.70;;
57311;SDS011;43154;50.966;18.316;2023-02-04T14:38:21;13.40;;;4.10;;
57311;SDS011;43154;50.966;18.316;2023-02-04T14:40:46;20.80;;;6.90;;
57311;SDS011;43154;50.966;18.316;2023-02-04T14:43:12;15.40;;;4.90;;
57311;SDS011;43154;50.966;18.316;2023-02-04T14:45:39;18.30;;;5.50;;
57311;SDS011;43154;50.966;18.316;2023-02-04T14:48:05;27.70;;;8.60;;
57311;SDS011;43154;50.966;18.316;2023-02-04T14:50:32;15.30;;;4.00;;
57311;SDS011;43154;50.966;18.316;2023-02-04T14:52:57;11.10;;;3.20;;
57311;SDS011;43154;50.966;18.316;2023-02-04T14:55:26;12.50;;;3.80;;
57311;SDS011;43154;50.966;18.316;2023-02-04T14:57:52;16.20;;;4.40;;
57311;SDS011;43154;50.966;18.316;2023-02-04T15:00:18;14.60;;;4.30;;
57311;SDS011;43154;50.966;18.316;2023-02-04T15:02:44;16.90;;;4.90;;
57311;SDS011;43154;50.966;18.316;2023-02-04T15:05:10;12.10;;;3.70;;
57311;SDS011;43154;50.966;18.316;2023-02-04T15:07:36;12.40;;;3.30;;
57311;SDS011;43154;50.966;18.316;2023-02-04T15:10:02;14.70;;;3.50;;
57311;SDS011;43154;50.966;18.316;2023-02-04T15:12:28;19.80;;;5.60;;
57311;SDS011;43154;50.966;18.316;2023-02-04T15:14:55;12.20;;;3.80;;
57311;SDS011;43154;50.966;18.316;2023-02-04T15:17:21;14.20;;;3.30;;
57311;SDS011;43154;50.966;18.316;2023-02-04T15:19:49;14.40;;;4.20;;
57311;SDS011;43154;50.966;18.316;2023-02-04T15:22:15;11.60;;;3.10;;
57311;SDS011;43154;50.966;18.316;2023-02-04T15:24:40;13.30;;;3.30;;
57311;SDS011;43154;50.966;18.316;2023-02-04T15:27:06;14.40;;;3.70;;
57311;SDS011;43154;50.966;18.316;2023-02-04T15:29:32;19.80;;;5.90;;
57311;SDS011;43154;50.966;18.316;2023-02-04T15:31:58;26.40;;;7.60;;
57311;SDS011;43154;50.966;18.316;2023-02-04T15:34:24;16.00;;;4.20;;
57311;SDS011;43154;50.966;18.316;2023-02-04T15:36:50;20.70;;;5.60;;
57311;SDS011;43154;50.966;18.316;2023-02-04T15:39:15;14.00;;;3.20;;
57311;SDS011;43154;50.966;18.316;2023-02-04T15:41:42;18.40;;;4.90;;
57311;SDS011;43154;50.966;18.316;2023-02-04T15:44:08;11.70;;;3.30;;
57311;SDS011;43154;50.966;18.316;2023-02-04T15:46:36;40.00;;;9.90;;
57311;SDS011;43154;50.966;18.316;2023-02-04T15:49:02;19.60;;;4.80;;
57311;SDS011;43154;50.966;18.316;2023-02-04T15:51:28;15.70;;;4.20;;
57311;SDS011;43154;50.966;18.316;2023-02-04T15:53:53;20.00;;;6.70;;
57311;SDS011;43154;50.966;18.316;2023-02-04T15:56:19;15.70;;;4.10;;
57311;SDS011;43154;50.966;18.316;2023-02-04T15:58:45;31.10;;;8.40;;
57311;SDS011;43154;50.966;18.316;2023-02-04T16:01:10;18.20;;;5.50;;
57311;SDS011;43154;50.966;18.316;2023-02-04T16:03:37;13.90;;;3.50;;
57311;SDS011;43154;50.966;18.316;2023-02-04T16:06:02;14.80;;;4.60;;
57311;SDS011;43154;50.966;18.316;2023-02-04T16:08:30;12.60;;;3.80;;
57311;SDS011;43154;50.966;18.316;2023-02-04T16:10:55;17.90;;;5.30;;
57311;SDS011;43154;50.966;18.316;2023-02-04T16:13:21;21.80;;;6.00;;
57311;SDS011;43154;50.966;18.316;2023-02-04T16:15:46;29.30;;;7.40;;
57311;SDS011;43154;50.966;18.316;2023-02-04T16:18:12;13.80;;;3.40;;
57311;SDS011;43154;50.966;18.316;2023-02-04T16:20:38;18.80;;;5.20;;
57311;SDS011;43154;50.966;18.316;2023-02-04T16:23:03;19.60;;;6.60;;
57311;SDS011;43154;50.966;18.316;2023-02-04T16:25:31;14.80;;;4.60;;
57311;SDS011;43154;50.966;18.316;2023-02-04T16:27:57;16.60;;;4.40;;
57311;SDS011;43154;50.966;18.316;2023-02-04T16:30:23;15.30;;;4.50;;
57311;SDS011;43154;50.966;18.316;2023-02-04T16:32:49;32.50;;;11.80;;
57311;SDS011;43154;50.966;18.316;2023-02-04T16:35:15;39.80;;;12.90;;
57311;SDS011;43154;50.966;18.316;2023-02-04T16:37:42;46.10;;;14.50;;